sensor_id;sensor_type;location;lat;lon;timestamp;temperature;humidity
73277;DHT22;61501;43.316;5.372;2022-07-29T00:00:44;26.00;51.90
73277;DHT22;61501;43.316;5.372;2022-07-29T00:03:13;26.00;51.60
73277;DHT22;61501;43.316;5.372;2022-07-29T00:05:40;25.90;52.20
73277;DHT22;61501;43.316;5.372;2022-07-29T00:08:09;26.00;52.60
73277;DHT22;61501;43.316;5.372;2022-07-29T00:10:35;26.00;52.60
73277;DHT22;61501;43.316;5.372;2022-07-29T00:13:01;25.90;51.60
73277;DHT22;61501;43.316;5.372;2022-07-29T00:15:27;26.00;52.10
73277;DHT22;61501;43.316;5.372;2022-07-29T00:17:53;26.00;51.30
73277;DHT22;61501;43.316;5.372;2022-07-29T00:20:19;26.00;52.00
73277;DHT22;61501;43.316;5.372;2022-07-29T00:22:45;25.90;50.30
73277;DHT22;61501;43.316;5.372;2022-07-29T00:25:12;25.90;49.90
73277;DHT22;61501;43.316;5.372;2022-07-29T00:27:38;25.90;50.00
73277;DHT22;61501;43.316;5.372;2022-07-29T00:30:05;25.80;49.30
73277;DHT22;61501;43.316;5.372;2022-07-29T00:32:31;25.80;49.20
73277;DHT22;61501;43.316;5.372;2022-07-29T00:34:57;25.80;48.10
73277;DHT22;61501;43.316;5.372;2022-07-29T00:37:41;25.80;48.70
73277;DHT22;61501;43.316;5.372;2022-07-29T00:40:07;25.80;48.20
73277;DHT22;61501;43.316;5.372;2022-07-29T00:42:47;25.80;47.60
73277;DHT22;61501;43.316;5.372;2022-07-29T00:45:13;25.80;47.10
73277;DHT22;61501;43.316;5.372;2022-07-29T00:47:39;25.80;48.00
73277;DHT22;61501;43.316;5.372;2022-07-29T00:50:06;25.80;48.70
73277;DHT22;61501;43.316;5.372;2022-07-29T00:52:34;25.80;47.70
73277;DHT22;61501;43.316;5.372;2022-07-29T00:55:02;25.80;47.10
73277;DHT22;61501;43.316;5.372;2022-07-29T00:57:28;25.70;48.30
73277;DHT22;61501;43.316;5.372;2022-07-29T00:59:53;25.80;48.70
73277;DHT22;61501;43.316;5.372;2022-07-29T01:02:19;25.70;47.80
73277;DHT22;61501;43.316;5.372;2022-07-29T01:04:45;25.70;47.60
73277;DHT22;61501;43.316;5.372;2022-07-29T01:07:11;25.70;48.10
73277;DHT22;61501;43.316;5.372;2022-07-29T01:09:37;25.70;47.80
73277;DHT22;61501;43.316;5.372;2022-07-29T01:12:03;25.70;48.30
73277;DHT22;61501;43.316;5.372;2022-07-29T01:14:30;25.70;49.70
73277;DHT22;61501;43.316;5.372;2022-07-29T01:17:09;25.50;53.40
73277;DHT22;61501;43.316;5.372;2022-07-29T01:30:27;25.00;57.20
73277;DHT22;61501;43.316;5.372;2022-07-29T01:32:58;25.00;57.40
73277;DHT22;61501;43.316;5.372;2022-07-29T01:35:27;25.00;57.10
73277;DHT22;61501;43.316;5.372;2022-07-29T01:38:17;25.00;57.50
73277;DHT22;61501;43.316;5.372;2022-07-29T01:40:49;25.00;56.80
73277;DHT22;61501;43.316;5.372;2022-07-29T01:43:20;25.00;57.90
73277;DHT22;61501;43.316;5.372;2022-07-29T01:46:17;25.10;57.70
73277;DHT22;61501;43.316;5.372;2022-07-29T01:48:47;25.20;57.60
73277;DHT22;61501;43.316;5.372;2022-07-29T01:51:20;25.20;57.40
73277;DHT22;61501;43.316;5.372;2022-07-29T01:54:07;25.20;57.30
73277;DHT22;61501;43.316;5.372;2022-07-29T01:56:37;25.20;57.50
73277;DHT22;61501;43.316;5.372;2022-07-29T01:59:06;25.20;58.40
73277;DHT22;61501;43.316;5.372;2022-07-29T02:01:34;25.20;57.10
73277;DHT22;61501;43.316;5.372;2022-07-29T02:04:03;25.20;57.20
73277;DHT22;61501;43.316;5.372;2022-07-29T02:06:30;25.20;57.90
73277;DHT22;61501;43.316;5.372;2022-07-29T02:08:58;25.20;57.90
73277;DHT22;61501;43.316;5.372;2022-07-29T02:11:24;25.30;56.90
73277;DHT22;61501;43.316;5.372;2022-07-29T02:13:52;25.30;56.50
73277;DHT22;61501;43.316;5.372;2022-07-29T02:16:22;25.30;56.50
73277;DHT22;61501;43.316;5.372;2022-07-29T02:18:51;25.30;56.80
73277;DHT22;61501;43.316;5.372;2022-07-29T02:21:23;25.30;55.30
73277;DHT22;61501;43.316;5.372;2022-07-29T02:23:51;25.30;55.60
73277;DHT22;61501;43.316;5.372;2022-07-29T02:26:20;25.30;54.50
73277;DHT22;61501;43.316;5.372;2022-07-29T02:28:47;25.30;53.70
73277;DHT22;61501;43.316;5.372;2022-07-29T02:31:13;25.40;54.40
73277;DHT22;61501;43.316;5.372;2022-07-29T02:33:40;25.30;51.70
73277;DHT22;61501;43.316;5.372;2022-07-29T02:36:06;25.30;51.00
73277;DHT22;61501;43.316;5.372;2022-07-29T02:38:34;25.30;51.70
73277;DHT22;61501;43.316;5.372;2022-07-29T02:41:19;25.30;51.90
73277;DHT22;61501;43.316;5.372;2022-07-29T02:43:47;25.20;51.00
73277;DHT22;61501;43.316;5.372;2022-07-29T02:46:18;25.30;49.80
73277;DHT22;61501;43.316;5.372;2022-07-29T02:48:58;25.30;49.90
73277;DHT22;61501;43.316;5.372;2022-07-29T02:51:44;25.30;50.00
73277;DHT22;61501;43.316;5.372;2022-07-29T02:54:14;25.30;49.30
73277;DHT22;61501;43.316;5.372;2022-07-29T02:56:44;25.30;49.70
73277;DHT22;61501;43.316;5.372;2022-07-29T02:59:11;25.20;49.20
73277;DHT22;61501;43.316;5.372;2022-07-29T03:01:41;25.20;49.00
73277;DHT22;61501;43.316;5.372;2022-07-29T03:04:09;25.20;50.00
73277;DHT22;61501;43.316;5.372;2022-07-29T03:06:37;25.20;50.80
73277;DHT22;61501;43.316;5.372;2022-07-29T03:09:06;25.20;50.20
73277;DHT22;61501;43.316;5.372;2022-07-29T03:11:33;25.20;50.60
73277;DHT22;61501;43.316;5.372;2022-07-29T03:13:59;25.20;50.00
73277;DHT22;61501;43.316;5.372;2022-07-29T03:16:27;25.20;49.70
73277;DHT22;61501;43.316;5.372;2022-07-29T03:18:53;25.20;49.50
73277;DHT22;61501;43.316;5.372;2022-07-29T03:21:19;25.20;49.50
73277;DHT22;61501;43.316;5.372;2022-07-29T03:23:45;25.20;48.80
73277;DHT22;61501;43.316;5.372;2022-07-29T03:26:12;25.20;48.50
73277;DHT22;61501;43.316;5.372;2022-07-29T03:28:38;25.20;48.90
73277;DHT22;61501;43.316;5.372;2022-07-29T03:31:04;25.20;48.80
73277;DHT22;61501;43.316;5.372;2022-07-29T03:33:29;25.20;48.40
73277;DHT22;61501;43.316;5.372;2022-07-29T03:35:56;25.20;48.60
73277;DHT22;61501;43.316;5.372;2022-07-29T03:38:24;25.20;49.10
73277;DHT22;61501;43.316;5.372;2022-07-29T03:40:54;25.20;48.50
73277;DHT22;61501;43.316;5.372;2022-07-29T03:43:20;25.10;47.90
73277;DHT22;61501;43.316;5.372;2022-07-29T03:45:52;25.10;48.80
73277;DHT22;61501;43.316;5.372;2022-07-29T03:48:21;25.20;49.10
73277;DHT22;61501;43.316;5.372;2022-07-29T03:50:48;25.10;48.60
73277;DHT22;61501;43.316;5.372;2022-07-29T03:53:15;25.10;48.90
73277;DHT22;61501;43.316;5.372;2022-07-29T03:55:44;25.10;48.70
73277;DHT22;61501;43.316;5.372;2022-07-29T03:58:13;25.10;48.80
73277;DHT22;61501;43.316;5.372;2022-07-29T04:00:40;25.10;49.10
73277;DHT22;61501;43.316;5.372;2022-07-29T04:03:05;25.00;49.20
73277;DHT22;61501;43.316;5.372;2022-07-29T04:05:32;25.00;49.10
73277;DHT22;61501;43.316;5.372;2022-07-29T04:07:58;25.00;49.00
73277;DHT22;61501;43.316;5.372;2022-07-29T04:10:23;25.00;49.30
73277;DHT22;61501;43.316;5.372;2022-07-29T04:12:49;25.00;50.40
73277;DHT22;61501;43.316;5.372;2022-07-29T04:15:15;25.00;49.10
73277;DHT22;61501;43.316;5.372;2022-07-29T04:17:41;25.00;49.20
73277;DHT22;61501;43.316;5.372;2022-07-29T04:20:07;25.00;49.00
73277;DHT22;61501;43.316;5.372;2022-07-29T04:22:33;25.00;49.30
73277;DHT22;61501;43.316;5.372;2022-07-29T04:24:58;25.10;49.20
73277;DHT22;61501;43.316;5.372;2022-07-29T04:27:25;25.10;49.30
73277;DHT22;61501;43.316;5.372;2022-07-29T04:29:50;25.10;49.10
73277;DHT22;61501;43.316;5.372;2022-07-29T04:32:16;25.10;49.10
73277;DHT22;61501;43.316;5.372;2022-07-29T04:34:42;25.10;49.50
73277;DHT22;61501;43.316;5.372;2022-07-29T04:37:07;25.10;49.30
73277;DHT22;61501;43.316;5.372;2022-07-29T04:39:33;25.20;49.80
73277;DHT22;61501;43.316;5.372;2022-07-29T04:41:59;25.20;50.00
73277;DHT22;61501;43.316;5.372;2022-07-29T04:44:24;25.30;49.50
73277;DHT22;61501;43.316;5.372;2022-07-29T04:46:50;25.30;49.20
73277;DHT22;61501;43.316;5.372;2022-07-29T04:49:15;25.40;49.20
73277;DHT22;61501;43.316;5.372;2022-07-29T04:51:41;25.40;48.30
73277;DHT22;61501;43.316;5.372;2022-07-29T04:54:07;25.40;48.60
73277;DHT22;61501;43.316;5.372;2022-07-29T04:56:32;25.40;48.70
73277;DHT22;61501;43.316;5.372;2022-07-29T04:58:58;25.30;48.50
73277;DHT22;61501;43.316;5.372;2022-07-29T05:01:23;25.30;48.60
73277;DHT22;61501;43.316;5.372;2022-07-29T05:03:49;25.30;48.90
73277;DHT22;61501;43.316;5.372;2022-07-29T05:06:15;25.40;48.70
73277;DHT22;61501;43.316;5.372;2022-07-29T05:08:40;25.40;48.60
73277;DHT22;61501;43.316;5.372;2022-07-29T05:11:06;25.40;48.50
73277;DHT22;61501;43.316;5.372;2022-07-29T05:13:31;25.50;48.80
73277;DHT22;61501;43.316;5.372;2022-07-29T05:15:57;25.50;48.30
73277;DHT22;61501;43.316;5.372;2022-07-29T05:18:25;25.50;48.50
73277;DHT22;61501;43.316;5.372;2022-07-29T05:20:51;25.40;48.40
73277;DHT22;61501;43.316;5.372;2022-07-29T05:23:17;25.50;48.80
73277;DHT22;61501;43.316;5.372;2022-07-29T05:25:43;25.50;49.30
73277;DHT22;61501;43.316;5.372;2022-07-29T05:28:08;25.50;49.20
73277;DHT22;61501;43.316;5.372;2022-07-29T05:30:34;25.50;49.20
73277;DHT22;61501;43.316;5.372;2022-07-29T05:32:59;25.60;49.20
73277;DHT22;61501;43.316;5.372;2022-07-29T05:35:25;25.60;48.60
73277;DHT22;61501;43.316;5.372;2022-07-29T05:37:51;25.70;50.20
73277;DHT22;61501;43.316;5.372;2022-07-29T05:40:16;25.80;49.60
73277;DHT22;61501;43.316;5.372;2022-07-29T05:42:42;25.90;48.60
73277;DHT22;61501;43.316;5.372;2022-07-29T05:45:08;25.90;48.10
73277;DHT22;61501;43.316;5.372;2022-07-29T05:47:34;26.00;48.30
73277;DHT22;61501;43.316;5.372;2022-07-29T05:50:00;26.10;48.40
73277;DHT22;61501;43.316;5.372;2022-07-29T05:52:26;26.20;47.90
73277;DHT22;61501;43.316;5.372;2022-07-29T05:54:51;26.30;47.40
73277;DHT22;61501;43.316;5.372;2022-07-29T05:57:18;26.30;46.70
73277;DHT22;61501;43.316;5.372;2022-07-29T05:59:44;26.30;46.50
73277;DHT22;61501;43.316;5.372;2022-07-29T06:02:10;26.50;46.90
73277;DHT22;61501;43.316;5.372;2022-07-29T06:04:36;26.50;46.60
73277;DHT22;61501;43.316;5.372;2022-07-29T06:07:02;26.50;47.70
73277;DHT22;61501;43.316;5.372;2022-07-29T06:09:29;26.40;47.30
73277;DHT22;61501;43.316;5.372;2022-07-29T06:11:54;26.40;47.20
73277;DHT22;61501;43.316;5.372;2022-07-29T06:14:20;26.40;47.20
73277;DHT22;61501;43.316;5.372;2022-07-29T06:16:46;26.40;47.40
73277;DHT22;61501;43.316;5.372;2022-07-29T06:19:11;26.40;47.90
73277;DHT22;61501;43.316;5.372;2022-07-29T06:21:42;26.50;47.90
73277;DHT22;61501;43.316;5.372;2022-07-29T06:24:07;26.60;48.30
73277;DHT22;61501;43.316;5.372;2022-07-29T06:26:33;26.70;48.30
73277;DHT22;61501;43.316;5.372;2022-07-29T06:28:59;26.80;48.00
73277;DHT22;61501;43.316;5.372;2022-07-29T06:31:25;26.90;47.70
73277;DHT22;61501;43.316;5.372;2022-07-29T06:33:50;27.00;47.10
73277;DHT22;61501;43.316;5.372;2022-07-29T06:36:16;27.20;46.50
73277;DHT22;61501;43.316;5.372;2022-07-29T06:38:42;27.10;46.90
73277;DHT22;61501;43.316;5.372;2022-07-29T06:41:08;27.00;46.20
73277;DHT22;61501;43.316;5.372;2022-07-29T06:43:42;27.10;46.90
73277;DHT22;61501;43.316;5.372;2022-07-29T06:46:10;27.10;46.50
73277;DHT22;61501;43.316;5.372;2022-07-29T06:48:37;27.10;47.00
73277;DHT22;61501;43.316;5.372;2022-07-29T06:51:04;27.00;46.60
73277;DHT22;61501;43.316;5.372;2022-07-29T06:53:30;26.90;46.30
73277;DHT22;61501;43.316;5.372;2022-07-29T06:55:56;26.80;47.00
73277;DHT22;61501;43.316;5.372;2022-07-29T06:58:23;26.70;47.30
73277;DHT22;61501;43.316;5.372;2022-07-29T07:00:49;26.70;47.50
73277;DHT22;61501;43.316;5.372;2022-07-29T07:03:16;26.50;47.60
73277;DHT22;61501;43.316;5.372;2022-07-29T07:05:42;26.40;48.10
73277;DHT22;61501;43.316;5.372;2022-07-29T07:08:08;26.30;48.00
73277;DHT22;61501;43.316;5.372;2022-07-29T07:10:33;26.20;48.50
73277;DHT22;61501;43.316;5.372;2022-07-29T07:13:00;26.10;48.70
73277;DHT22;61501;43.316;5.372;2022-07-29T07:15:27;26.00;48.70
73277;DHT22;61501;43.316;5.372;2022-07-29T07:17:52;25.90;50.10
73277;DHT22;61501;43.316;5.372;2022-07-29T07:20:18;25.90;51.50
73277;DHT22;61501;43.316;5.372;2022-07-29T07:22:44;25.80;51.00
73277;DHT22;61501;43.316;5.372;2022-07-29T07:25:10;25.60;52.80
73277;DHT22;61501;43.316;5.372;2022-07-29T07:27:36;25.30;54.00
73277;DHT22;61501;43.316;5.372;2022-07-29T07:30:06;25.10;56.10
73277;DHT22;61501;43.316;5.372;2022-07-29T07:32:33;25.10;55.20
73277;DHT22;61501;43.316;5.372;2022-07-29T07:34:58;25.10;53.10
73277;DHT22;61501;43.316;5.372;2022-07-29T07:37:24;25.20;55.50
73277;DHT22;61501;43.316;5.372;2022-07-29T07:39:51;24.90;57.90
73277;DHT22;61501;43.316;5.372;2022-07-29T07:42:17;24.70;57.50
73277;DHT22;61501;43.316;5.372;2022-07-29T07:44:43;24.60;57.40
73277;DHT22;61501;43.316;5.372;2022-07-29T07:47:08;24.60;57.20
73277;DHT22;61501;43.316;5.372;2022-07-29T07:49:34;24.50;56.90
73277;DHT22;61501;43.316;5.372;2022-07-29T07:52:00;24.70;57.10
73277;DHT22;61501;43.316;5.372;2022-07-29T07:54:25;25.00;56.00
73277;DHT22;61501;43.316;5.372;2022-07-29T07:56:51;25.10;55.60
73277;DHT22;61501;43.316;5.372;2022-07-29T07:59:17;25.20;55.70
73277;DHT22;61501;43.316;5.372;2022-07-29T08:01:42;25.30;56.30
73277;DHT22;61501;43.316;5.372;2022-07-29T08:04:09;25.40;56.20
73277;DHT22;61501;43.316;5.372;2022-07-29T08:06:34;25.60;56.10
73277;DHT22;61501;43.316;5.372;2022-07-29T08:09:02;25.80;55.50
73277;DHT22;61501;43.316;5.372;2022-07-29T08:11:28;25.80;54.90
73277;DHT22;61501;43.316;5.372;2022-07-29T08:13:54;25.90;55.00
73277;DHT22;61501;43.316;5.372;2022-07-29T08:16:20;26.00;54.50
73277;DHT22;61501;43.316;5.372;2022-07-29T08:18:46;26.10;55.20
73277;DHT22;61501;43.316;5.372;2022-07-29T08:21:13;26.30;55.10
73277;DHT22;61501;43.316;5.372;2022-07-29T08:23:39;26.60;54.40
73277;DHT22;61501;43.316;5.372;2022-07-29T08:26:08;26.90;53.70
73277;DHT22;61501;43.316;5.372;2022-07-29T08:28:38;27.00;53.20
73277;DHT22;61501;43.316;5.372;2022-07-29T08:31:04;27.10;48.30
73277;DHT22;61501;43.316;5.372;2022-07-29T08:33:29;27.30;49.60
73277;DHT22;61501;43.316;5.372;2022-07-29T08:35:55;27.20;50.50
73277;DHT22;61501;43.316;5.372;2022-07-29T08:38:21;27.00;51.00
73277;DHT22;61501;43.316;5.372;2022-07-29T08:40:47;26.90;52.50
73277;DHT22;61501;43.316;5.372;2022-07-29T08:43:13;26.70;52.60
73277;DHT22;61501;43.316;5.372;2022-07-29T08:45:49;26.50;53.10
73277;DHT22;61501;43.316;5.372;2022-07-29T08:48:21;26.30;52.80
73277;DHT22;61501;43.316;5.372;2022-07-29T08:50:48;25.90;55.60
73277;DHT22;61501;43.316;5.372;2022-07-29T08:53:16;25.90;56.30
73277;DHT22;61501;43.316;5.372;2022-07-29T08:55:44;25.70;57.80
73277;DHT22;61501;43.316;5.372;2022-07-29T08:58:11;25.30;59.10
73277;DHT22;61501;43.316;5.372;2022-07-29T09:00:41;25.40;59.20
73277;DHT22;61501;43.316;5.372;2022-07-29T09:03:08;25.40;57.90
73277;DHT22;61501;43.316;5.372;2022-07-29T09:05:34;25.10;58.40
73277;DHT22;61501;43.316;5.372;2022-07-29T09:08:01;24.90;59.60
73277;DHT22;61501;43.316;5.372;2022-07-29T09:10:27;24.90;60.70
73277;DHT22;61501;43.316;5.372;2022-07-29T09:12:54;25.20;59.40
73277;DHT22;61501;43.316;5.372;2022-07-29T09:15:20;25.30;58.60
73277;DHT22;61501;43.316;5.372;2022-07-29T09:17:48;25.50;58.00
73277;DHT22;61501;43.316;5.372;2022-07-29T09:20:16;25.60;58.90
73277;DHT22;61501;43.316;5.372;2022-07-29T09:22:43;25.40;59.80
73277;DHT22;61501;43.316;5.372;2022-07-29T09:25:10;25.00;56.70
73277;DHT22;61501;43.316;5.372;2022-07-29T09:27:36;25.00;57.10
73277;DHT22;61501;43.316;5.372;2022-07-29T09:30:08;25.10;54.80
73277;DHT22;61501;43.316;5.372;2022-07-29T09:32:56;25.00;57.40
73277;DHT22;61501;43.316;5.372;2022-07-29T09:35:27;25.30;56.20
73277;DHT22;61501;43.316;5.372;2022-07-29T09:37:54;25.50;54.70
73277;DHT22;61501;43.316;5.372;2022-07-29T09:40:26;25.20;54.60
73277;DHT22;61501;43.316;5.372;2022-07-29T09:42:52;25.10;53.70
73277;DHT22;61501;43.316;5.372;2022-07-29T09:45:33;25.00;52.90
73277;DHT22;61501;43.316;5.372;2022-07-29T09:48:38;25.40;52.30
73277;DHT22;61501;43.316;5.372;2022-07-29T09:51:04;25.70;51.70
73277;DHT22;61501;43.316;5.372;2022-07-29T09:53:34;26.00;51.30
73277;DHT22;61501;43.316;5.372;2022-07-29T09:56:01;26.30;51.40
73277;DHT22;61501;43.316;5.372;2022-07-29T09:58:26;26.60;50.60
73277;DHT22;61501;43.316;5.372;2022-07-29T10:00:54;26.90;50.30
73277;DHT22;61501;43.316;5.372;2022-07-29T10:03:20;26.90;50.50
73277;DHT22;61501;43.316;5.372;2022-07-29T10:05:47;26.70;51.00
73277;DHT22;61501;43.316;5.372;2022-07-29T10:08:28;26.70;51.40
73277;DHT22;61501;43.316;5.372;2022-07-29T10:11:12;26.70;51.30
73277;DHT22;61501;43.316;5.372;2022-07-29T10:13:38;26.80;51.30
73277;DHT22;61501;43.316;5.372;2022-07-29T10:16:05;26.90;51.60
73277;DHT22;61501;43.316;5.372;2022-07-29T10:18:32;26.90;51.90
73277;DHT22;61501;43.316;5.372;2022-07-29T10:20:58;26.50;53.40
73277;DHT22;61501;43.316;5.372;2022-07-29T10:23:29;26.10;55.60
73277;DHT22;61501;43.316;5.372;2022-07-29T10:25:55;25.70;58.50
73277;DHT22;61501;43.316;5.372;2022-07-29T10:28:21;25.50;60.30
73277;DHT22;61501;43.316;5.372;2022-07-29T10:30:49;25.50;60.30
73277;DHT22;61501;43.316;5.372;2022-07-29T10:39:19;26.30;57.90
73277;DHT22;61501;43.316;5.372;2022-07-29T10:41:55;26.40;55.00
73277;DHT22;61501;43.316;5.372;2022-07-29T10:44:22;26.60;56.30
73277;DHT22;61501;43.316;5.372;2022-07-29T10:46:50;26.70;55.40
73277;DHT22;61501;43.316;5.372;2022-07-29T10:49:24;27.00;55.20
73277;DHT22;61501;43.316;5.372;2022-07-29T10:52:20;27.30;52.00
73277;DHT22;61501;43.316;5.372;2022-07-29T10:54:48;27.60;51.60
73277;DHT22;61501;43.316;5.372;2022-07-29T10:57:29;27.50;52.70
73277;DHT22;61501;43.316;5.372;2022-07-29T11:05:16;26.80;55.20
73277;DHT22;61501;43.316;5.372;2022-07-29T11:10:38;26.70;55.80
73277;DHT22;61501;43.316;5.372;2022-07-29T11:13:03;26.70;55.70
73277;DHT22;61501;43.316;5.372;2022-07-29T11:15:29;26.90;55.10
73277;DHT22;61501;43.316;5.372;2022-07-29T11:18:14;27.00;52.80
73277;DHT22;61501;43.316;5.372;2022-07-29T11:20:41;27.00;52.30
73277;DHT22;61501;43.316;5.372;2022-07-29T11:23:22;27.10;52.80
73277;DHT22;61501;43.316;5.372;2022-07-29T11:31:39;26.70;55.50
73277;DHT22;61501;43.316;5.372;2022-07-29T11:34:31;26.70;55.80
73277;DHT22;61501;43.316;5.372;2022-07-29T11:45:04;26.90;54.20
73277;DHT22;61501;43.316;5.372;2022-07-29T11:47:33;27.10;51.80
73277;DHT22;61501;43.316;5.372;2022-07-29T11:50:00;27.10;51.70
73277;DHT22;61501;43.316;5.372;2022-07-29T11:52:39;27.20;50.90
73277;DHT22;61501;43.316;5.372;2022-07-29T11:55:19;27.30;50.60
73277;DHT22;61501;43.316;5.372;2022-07-29T11:57:55;27.40;50.60
73277;DHT22;61501;43.316;5.372;2022-07-29T12:00:32;27.60;50.00
73277;DHT22;61501;43.316;5.372;2022-07-29T12:03:00;27.80;49.70
73277;DHT22;61501;43.316;5.372;2022-07-29T12:08:15;27.90;49.70
73277;DHT22;61501;43.316;5.372;2022-07-29T12:10:44;28.60;48.20
73277;DHT22;61501;43.316;5.372;2022-07-29T12:13:12;29.10;47.80
73277;DHT22;61501;43.316;5.372;2022-07-29T12:15:38;29.70;46.40
73277;DHT22;61501;43.316;5.372;2022-07-29T12:18:15;30.80;43.60
73277;DHT22;61501;43.316;5.372;2022-07-29T12:20:42;31.80;41.20
73277;DHT22;61501;43.316;5.372;2022-07-29T12:23:09;31.40;41.80
73277;DHT22;61501;43.316;5.372;2022-07-29T12:25:37;32.00;40.50
73277;DHT22;61501;43.316;5.372;2022-07-29T12:28:08;31.60;40.50
73277;DHT22;61501;43.316;5.372;2022-07-29T12:30:52;30.90;41.30
73277;DHT22;61501;43.316;5.372;2022-07-29T12:33:26;30.30;43.30
73277;DHT22;61501;43.316;5.372;2022-07-29T12:36:00;30.20;43.10
73277;DHT22;61501;43.316;5.372;2022-07-29T12:38:27;30.30;42.70
73277;DHT22;61501;43.316;5.372;2022-07-29T12:40:54;30.30;43.10
73277;DHT22;61501;43.316;5.372;2022-07-29T12:43:22;30.40;43.00
73277;DHT22;61501;43.316;5.372;2022-07-29T12:45:53;30.60;43.00
73277;DHT22;61501;43.316;5.372;2022-07-29T12:48:39;31.30;41.30
73277;DHT22;61501;43.316;5.372;2022-07-29T12:51:06;32.90;37.10
73277;DHT22;61501;43.316;5.372;2022-07-29T12:53:33;33.40;34.10
73277;DHT22;61501;43.316;5.372;2022-07-29T12:55:59;33.80;34.30
73277;DHT22;61501;43.316;5.372;2022-07-29T12:58:32;34.70;33.00
73277;DHT22;61501;43.316;5.372;2022-07-29T13:03:27;35.20;31.80
73277;DHT22;61501;43.316;5.372;2022-07-29T13:05:53;35.60;30.90
73277;DHT22;61501;43.316;5.372;2022-07-29T13:08:19;35.30;31.70
73277;DHT22;61501;43.316;5.372;2022-07-29T13:10:45;34.30;32.60
73277;DHT22;61501;43.316;5.372;2022-07-29T13:13:13;32.80;34.60
73277;DHT22;61501;43.316;5.372;2022-07-29T13:15:43;32.00;35.00
73277;DHT22;61501;43.316;5.372;2022-07-29T13:18:28;31.60;36.30
73277;DHT22;61501;43.316;5.372;2022-07-29T13:20:54;31.40;37.20
73277;DHT22;61501;43.316;5.372;2022-07-29T13:23:20;31.30;37.50
73277;DHT22;61501;43.316;5.372;2022-07-29T13:25:46;31.00;37.90
73277;DHT22;61501;43.316;5.372;2022-07-29T13:28:11;31.00;38.10
73277;DHT22;61501;43.316;5.372;2022-07-29T13:30:40;31.30;37.90
73277;DHT22;61501;43.316;5.372;2022-07-29T13:33:08;32.60;35.20
73277;DHT22;61501;43.316;5.372;2022-07-29T13:35:34;32.90;36.30
73277;DHT22;61501;43.316;5.372;2022-07-29T13:38:00;32.40;36.80
73277;DHT22;61501;43.316;5.372;2022-07-29T13:40:25;31.90;37.20
73277;DHT22;61501;43.316;5.372;2022-07-29T13:42:51;33.00;36.00
73277;DHT22;61501;43.316;5.372;2022-07-29T13:45:17;33.20;35.80
73277;DHT22;61501;43.316;5.372;2022-07-29T13:47:42;34.40;34.60
73277;DHT22;61501;43.316;5.372;2022-07-29T13:50:08;34.50;34.30
73277;DHT22;61501;43.316;5.372;2022-07-29T13:52:36;34.90;34.20
73277;DHT22;61501;43.316;5.372;2022-07-29T13:55:03;34.70;34.30
73277;DHT22;61501;43.316;5.372;2022-07-29T13:57:29;33.60;36.30
73277;DHT22;61501;43.316;5.372;2022-07-29T13:59:55;32.60;38.30
73277;DHT22;61501;43.316;5.372;2022-07-29T14:02:21;31.50;40.50
73277;DHT22;61501;43.316;5.372;2022-07-29T14:04:47;31.00;41.40
73277;DHT22;61501;43.316;5.372;2022-07-29T14:07:12;31.30;41.70
73277;DHT22;61501;43.316;5.372;2022-07-29T14:09:38;32.80;40.40
73277;DHT22;61501;43.316;5.372;2022-07-29T14:12:04;33.30;38.70
73277;DHT22;61501;43.316;5.372;2022-07-29T14:14:30;33.20;39.90
73277;DHT22;61501;43.316;5.372;2022-07-29T14:16:57;33.00;39.80
73277;DHT22;61501;43.316;5.372;2022-07-29T14:19:23;31.70;41.40
73277;DHT22;61501;43.316;5.372;2022-07-29T14:21:49;31.40;42.60
73277;DHT22;61501;43.316;5.372;2022-07-29T14:24:14;31.50;42.60
73277;DHT22;61501;43.316;5.372;2022-07-29T14:26:40;31.60;42.00
73277;DHT22;61501;43.316;5.372;2022-07-29T14:29:06;31.40;42.20
73277;DHT22;61501;43.316;5.372;2022-07-29T14:31:32;31.40;41.40
73277;DHT22;61501;43.316;5.372;2022-07-29T14:33:58;30.90;42.60
73277;DHT22;61501;43.316;5.372;2022-07-29T14:36:23;30.80;42.30
73277;DHT22;61501;43.316;5.372;2022-07-29T14:41:15;31.40;39.90
73277;DHT22;61501;43.316;5.372;2022-07-29T14:43:41;32.40;38.20
73277;DHT22;61501;43.316;5.372;2022-07-29T14:46:06;32.40;39.10
73277;DHT22;61501;43.316;5.372;2022-07-29T15:00:47;32.30;39.90
73277;DHT22;61501;43.316;5.372;2022-07-29T15:03:13;32.90;39.00
73277;DHT22;61501;43.316;5.372;2022-07-29T15:05:39;33.10;39.80
73277;DHT22;61501;43.316;5.372;2022-07-29T15:10:30;32.50;39.80
73277;DHT22;61501;43.316;5.372;2022-07-29T15:12:56;32.30;39.70
73277;DHT22;61501;43.316;5.372;2022-07-29T15:15:22;32.00;41.30
73277;DHT22;61501;43.316;5.372;2022-07-29T15:17:48;31.60;43.30
73277;DHT22;61501;43.316;5.372;2022-07-29T15:20:13;31.70;42.80
73277;DHT22;61501;43.316;5.372;2022-07-29T15:25:07;31.00;44.60
73277;DHT22;61501;43.316;5.372;2022-07-29T15:27:33;30.60;45.10
73277;DHT22;61501;43.316;5.372;2022-07-29T15:34:51;30.90;44.00
73277;DHT22;61501;43.316;5.372;2022-07-29T15:37:16;30.80;42.30
73277;DHT22;61501;43.316;5.372;2022-07-29T15:39:42;30.60;43.10
73277;DHT22;61501;43.316;5.372;2022-07-29T15:42:07;30.30;42.90
73277;DHT22;61501;43.316;5.372;2022-07-29T15:44:33;29.90;45.00
73277;DHT22;61501;43.316;5.372;2022-07-29T15:46:59;29.60;44.80
73277;DHT22;61501;43.316;5.372;2022-07-29T15:49:35;29.60;44.80
73277;DHT22;61501;43.316;5.372;2022-07-29T15:52:06;29.10;48.80
73277;DHT22;61501;43.316;5.372;2022-07-29T15:54:33;28.40;50.80
73277;DHT22;61501;43.316;5.372;2022-07-29T15:56:59;28.20;52.00
73277;DHT22;61501;43.316;5.372;2022-07-29T16:01:51;28.70;51.40
73277;DHT22;61501;43.316;5.372;2022-07-29T16:04:17;29.60;47.00
73277;DHT22;61501;43.316;5.372;2022-07-29T16:06:44;29.00;48.70
73277;DHT22;61501;43.316;5.372;2022-07-29T16:09:10;28.70;49.40
73277;DHT22;61501;43.316;5.372;2022-07-29T16:11:40;28.40;50.50
73277;DHT22;61501;43.316;5.372;2022-07-29T16:14:05;28.20;50.20
73277;DHT22;61501;43.316;5.372;2022-07-29T16:16:31;28.10;49.90
73277;DHT22;61501;43.316;5.372;2022-07-29T16:18:57;28.10;50.00
73277;DHT22;61501;43.316;5.372;2022-07-29T16:21:22;27.70;51.80
73277;DHT22;61501;43.316;5.372;2022-07-29T16:23:48;27.40;53.20
73277;DHT22;61501;43.316;5.372;2022-07-29T16:26:14;27.60;52.00
73277;DHT22;61501;43.316;5.372;2022-07-29T16:28:40;27.40;52.80
73277;DHT22;61501;43.316;5.372;2022-07-29T16:31:06;27.30;54.20
73277;DHT22;61501;43.316;5.372;2022-07-29T16:33:32;27.30;54.60
73277;DHT22;61501;43.316;5.372;2022-07-29T16:35:57;27.40;53.60
73277;DHT22;61501;43.316;5.372;2022-07-29T16:38:23;27.10;56.00
73277;DHT22;61501;43.316;5.372;2022-07-29T16:40:49;27.00;56.00
73277;DHT22;61501;43.316;5.372;2022-07-29T16:43:14;27.00;55.30
73277;DHT22;61501;43.316;5.372;2022-07-29T16:45:40;26.90;57.00